Time;durP1;ratioP1;P1;durP2;ratioP2;P2;SDS_P1;SDS_P2;PMS_P1;PMS_P2;Temp;Humidity;BMP_temperature;BMP_pressure;BME280_temperature;BME280_humidity;BME280_pressure;Samples;Min_cycle;Max_cycle;Signal;HPM_P1;HPM_P2
2022/08/19 00:02:25;;;;;;;71.28;53.35;;;20.20;99.90;;;;;;5054630;28;20044;-62
2022/08/19 00:04:52;;;;;;;73.72;54.95;;;20.10;99.90;;;;;;5054578;28;20052;-62
2022/08/19 00:07:19;;;;;;;71.47;53.03;;;20.00;99.90;;;;;;5054357;28;20032;-63
2022/08/19 00:09:45;;;;;;;69.57;53.25;;;19.90;99.90;;;;;;5054803;28;20507;-62
2022/08/19 00:12:11;;;;;;;68.10;52.55;;;19.80;99.90;;;;;;5054266;28;20032;-62
2022/08/19 00:14:38;;;;;;;73.20;53.58;;;19.70;99.90;;;;;;5054485;28;20056;-62
2022/08/19 00:17:06;;;;;;;69.30;52.72;;;19.70;99.90;;;;;;5054569;28;20112;-62
2022/08/19 00:19:32;;;;;;;74.65;55.03;;;19.60;99.90;;;;;;5054688;28;20393;-62
2022/08/19 00:21:57;;;;;;;69.93;52.10;;;19.50;99.90;;;;;;5054239;28;20121;-61
2022/08/19 00:24:24;;;;;;;70.03;53.47;;;19.50;99.90;;;;;;5054030;28;20429;-62
2022/08/19 00:26:51;;;;;;;69.82;52.95;;;19.40;99.90;;;;;;5052651;28;20029;-61
2022/08/19 00:29:19;;;;;;;71.90;53.88;;;19.30;99.90;;;;;;5054043;28;20088;-61
2022/08/19 00:31:46;;;;;;;69.47;53.13;;;19.30;99.90;;;;;;5053947;28;20033;-61
2022/08/19 00:34:13;;;;;;;72.97;54.08;;;19.20;99.90;;;;;;5053727;28;20029;-61
2022/08/19 00:36:40;;;;;;;69.68;50.75;;;19.20;99.90;;;;;;5053715;28;20117;-61
2022/08/19 00:39:06;;;;;;;67.43;50.33;;;19.10;99.90;;;;;;5053932;28;20032;-62
2022/08/19 00:41:32;;;;;;;63.90;47.72;;;19.10;99.90;;;;;;5053708;28;20474;-61
2022/08/19 00:43:59;;;;;;;67.95;49.88;;;19.00;99.90;;;;;;5054041;28;20051;-62
2022/08/19 00:46:25;;;;;;;59.58;45.53;;;19.00;99.90;;;;;;5053586;28;20051;-61
2022/08/19 00:48:50;;;;;;;60.72;46.17;;;19.00;99.90;;;;;;5053997;28;20027;-61
2022/08/19 00:51:16;;;;;;;60.80;46.60;;;19.00;99.90;;;;;;5052520;28;20130;-61
2022/08/19 00:53:43;;;;;;;56.05;44.50;;;19.00;99.90;;;;;;5053535;28;20032;-62
2022/08/19 00:56:09;;;;;;;56.97;43.95;;;19.10;99.90;;;;;;5053753;28;20029;-61
2022/08/19 00:58:36;;;;;;;61.10;45.20;;;19.10;99.90;;;;;;5053614;28;20122;-61
2022/08/19 01:01:04;;;;;;;55.55;42.55;;;19.00;99.90;;;;;;5052504;28;20037;-61
2022/08/19 01:03:30;;;;;;;60.53;44.63;;;19.00;99.90;;;;;;5054045;28;20488;-62
2022/08/19 01:05:56;;;;;;;56.88;43.67;;;18.90;99.90;;;;;;5053650;28;20108;-62
2022/08/19 01:08:22;;;;;;;55.30;42.00;;;18.80;99.90;;;;;;5052623;28;20132;-62
2022/08/19 01:10:56;;;;;;;55.92;41.97;;;18.90;99.90;;;;;;5053503;28;20075;-63
2022/08/19 01:13:26;;;;;;;49.15;39.33;;;18.90;99.90;;;;;;5053409;28;20036;-63
2022/08/19 01:15:57;;;;;;;50.25;39.30;;;18.90;99.90;;;;;;5053630;28;20032;-62
2022/08/19 01:18:24;;;;;;;52.10;37.80;;;18.80;99.90;;;;;;5053605;28;20489;-62
2022/08/19 01:20:51;;;;;;;45.15;34.35;;;18.70;99.90;;;;;;5053512;28;20025;-62
2022/08/19 01:23:17;;;;;;;42.63;33.30;;;18.70;99.90;;;;;;5052830;28;20036;-61
2022/08/19 01:25:50;;;;;;;40.55;31.85;;;18.70;99.90;;;;;;5052989;28;20021;-62
2022/08/19 01:28:17;;;;;;;37.83;30.25;;;18.70;99.90;;;;;;5053279;28;20561;-62
2022/08/19 01:30:44;;;;;;;38.88;29.92;;;18.60;99.90;;;;;;5053120;28;20031;-62
2022/08/19 01:33:10;;;;;;;38.17;30.52;;;18.50;99.90;;;;;;5052912;28;20033;-62
2022/08/19 01:35:36;;;;;;;41.65;30.00;;;18.50;99.90;;;;;;5053096;28;20501;-61
2022/08/19 01:38:10;;;;;;;38.47;30.70;;;18.50;99.90;;;;;;5053325;28;20107;-62
2022/08/19 01:40:39;;;;;;;42.05;31.40;;;18.40;99.90;;;;;;5052810;28;20025;-62
2022/08/19 01:43:05;;;;;;;40.17;31.17;;;18.40;99.90;;;;;;5053023;28;20485;-62
2022/08/19 01:45:33;;;;;;;39.55;32.50;;;18.30;99.90;;;;;;5052821;28;20017;-62
2022/08/19 01:47:59;;;;;;;40.38;32.35;;;18.30;99.90;;;;;;5052745;28;20025;-61
2022/08/19 01:50:25;;;;;;;43.15;33.78;;;18.30;99.90;;;;;;5052717;28;20025;-62
2022/08/19 01:52:51;;;;;;;46.35;33.55;;;18.30;99.90;;;;;;5051233;28;20029;-61
2022/08/19 01:55:20;;;;;;;42.20;34.28;;;18.20;99.90;;;;;;5052639;28;20032;-62
2022/08/19 01:57:51;;;;;;;44.47;34.22;;;18.10;99.90;;;;;;5052573;28;20036;-61
2022/08/19 02:00:20;;;;;;;45.08;34.17;;;18.10;99.90;;;;;;5052463;28;20087;-61
2022/08/19 02:02:46;;;;;;;44.15;34.13;;;18.00;99.90;;;;;;5052713;28;20048;-61
2022/08/19 02:05:12;;;;;;;42.88;32.03;;;18.00;99.90;;;;;;5052679;28;20026;-61
2022/08/19 02:07:40;;;;;;;41.97;31.27;;;18.10;99.90;;;;;;5052470;28;20029;-62
2022/08/19 02:10:10;;;;;;;44.88;30.83;;;18.10;99.90;;;;;;5052669;28;20029;-63
2022/08/19 02:12:35;;;;;;;39.63;29.95;;;18.10;99.90;;;;;;5052581;28;20044;-62
2022/08/19 02:15:03;;;;;;;42.33;30.05;;;18.10;99.90;;;;;;5051300;28;20027;-62
2022/08/19 02:17:29;;;;;;;40.17;30.35;;;18.00;99.90;;;;;;5051000;28;20032;-62
2022/08/19 02:19:58;;;;;;;42.13;28.92;;;18.00;99.90;;;;;;5052803;28;20390;-61
2022/08/19 02:22:27;;;;;;;38.97;28.95;;;18.00;99.90;;;;;;5052410;28;20029;-61
2022/08/19 02:24:54;;;;;;;46.58;29.30;;;18.00;99.90;;;;;;5051997;28;20033;-61
2022/08/19 02:27:21;;;;;;;38.45;28.77;;;18.00;99.90;;;;;;5052333;28;20032;-61
2022/08/19 02:29:48;;;;;;;41.47;30.55;;;17.90;99.90;;;;;;5053131;28;20025;-61
2022/08/19 02:32:14;;;;;;;44.70;30.50;;;17.90;99.90;;;;;;5051824;28;20028;-62
2022/08/19 02:34:40;;;;;;;39.90;29.13;;;17.90;99.90;;;;;;5052180;28;20099;-62
2022/08/19 02:38:24;;;;;;;41.25;28.20;;;17.80;99.90;;;;;;5051865;28;20080;-61
2022/08/19 02:39:52;;;;;;;43.33;29.35;;;17.70;99.90;;;;;;5052073;28;20146;-61
2022/08/19 02:42:17;;;;;;;37.08;27.17;;;17.70;99.90;;;;;;5051703;28;20130;-61
2022/08/19 02:44:43;;;;;;;38.80;27.80;;;17.70;99.90;;;;;;5050448;28;20481;-61
2022/08/19 02:47:09;;;;;;;39.92;26.75;;;17.70;99.90;;;;;;5052003;28;20036;-60
2022/08/19 02:49:35;;;;;;;36.22;26.98;;;17.60;99.90;;;;;;5050563;28;20296;-61
2022/08/19 02:52:01;;;;;;;37.28;26.85;;;17.60;99.90;;;;;;5051557;28;20029;-61
2022/08/19 02:54:27;;;;;;;38.40;26.98;;;17.60;99.90;;;;;;5052292;28;20044;-61
2022/08/19 02:56:53;;;;;;;41.95;25.83;;;17.60;99.90;;;;;;5050356;28;20115;-60
2022/08/19 02:59:19;;;;;;;37.20;26.30;;;17.60;99.90;;;;;;5051793;28;20083;-61
2022/08/19 03:01:45;;;;;;;33.15;24.92;;;17.60;99.90;;;;;;5051538;28;20087;-61
2022/08/19 03:04:14;;;;;;;41.38;26.42;;;17.60;99.90;;;;;;5051584;28;20432;-61
2022/08/19 03:06:43;;;;;;;40.72;27.08;;;17.60;99.90;;;;;;5051444;28;20367;-61
2022/08/19 03:09:09;;;;;;;36.90;25.80;;;17.60;99.90;;;;;;5051774;28;20021;-61
2022/08/19 03:11:35;;;;;;;34.65;24.55;;;17.60;99.90;;;;;;5051543;28;20033;-62
2022/08/19 03:14:03;;;;;;;39.75;24.60;;;17.60;99.90;;;;;;5051516;28;20485;-60
2022/08/19 03:16:32;;;;;;;33.35;23.40;;;17.60;99.90;;;;;;5051143;28;20036;-60
2022/08/19 03:18:59;;;;;;;31.08;23.98;;;17.50;99.90;;;;;;5051778;28;20409;-60
2022/08/19 03:21:27;;;;;;;39.28;24.05;;;17.30;99.90;;;;;;5051474;28;20504;-61
2022/08/19 03:23:57;;;;;;;32.50;23.17;;;17.40;99.90;;;;;;5050751;28;20021;-61
2022/08/19 03:26:23;;;;;;;39.65;24.30;;;17.40;99.90;;;;;;5050907;28;20494;-61
2022/08/19 03:28:49;;;;;;;36.42;22.77;;;17.30;99.90;;;;;;5051401;28;20018;-61
2022/08/19 03:31:18;;;;;;;36.10;23.98;;;17.20;99.90;;;;;;5051259;28;20040;-61
2022/08/19 03:33:45;;;;;;;39.47;24.27;;;17.20;99.90;;;;;;5050906;28;20039;-60
2022/08/19 03:36:12;;;;;;;33.67;23.45;;;17.10;99.90;;;;;;5051002;28;20209;-60
2022/08/19 03:38:44;;;;;;;36.55;24.55;;;17.10;99.90;;;;;;5051236;28;20100;-60
2022/08/19 03:41:15;;;;;;;33.08;23.80;;;17.00;99.90;;;;;;5050847;28;20060;-60
2022/08/19 03:43:42;;;;;;;34.40;23.52;;;17.00;99.90;;;;;;5051031;28;20029;-60
2022/08/19 03:46:21;;;;;;;38.35;25.42;;;17.00;99.90;;;;;;5050906;28;20268;-60
2022/08/19 03:48:49;;;;;;;39.13;26.13;;;17.00;99.90;;;;;;5049890;28;20604;-60
2022/08/19 03:51:32;;;;;;;41.67;25.55;;;16.90;99.90;;;;;;5051136;28;20406;-61
2022/08/19 03:54:00;;;;;;;35.60;25.50;;;16.80;99.90;;;;;;5050841;28;20079;-61
2022/08/19 03:56:28;;;;;;;39.40;26.25;;;16.90;99.90;;;;;;5050728;28;20490;-61
2022/08/19 03:58:59;;;;;;;41.30;25.92;;;16.80;99.90;;;;;;5050898;28;20045;-61
2022/08/19 04:01:27;;;;;;;38.13;26.17;;;16.80;99.90;;;;;;5050700;28;20474;-61
2022/08/19 04:03:53;;;;;;;38.03;26.40;;;16.70;99.90;;;;;;5050630;28;20032;-61
2022/08/19 04:06:22;;;;;;;42.55;26.95;;;16.70;99.90;;;;;;5050653;28;20025;-62
2022/08/19 04:08:50;;;;;;;38.00;25.80;;;16.70;99.90;;;;;;5050768;28;20027;-61
2022/08/19 04:11:20;;;;;;;39.50;26.58;;;16.60;99.90;;;;;;5050857;28;20033;-62
2022/08/19 04:13:46;;;;;;;41.13;26.95;;;16.60;99.90;;;;;;5050582;28;20032;-61
2022/08/19 04:16:12;;;;;;;39.35;25.90;;;16.60;99.90;;;;;;5050758;28;20394;-61
2022/08/19 04:18:40;;;;;;;39.40;26.67;;;16.60;99.90;;;;;;5050845;28;20025;-61
2022/08/19 04:21:07;;;;;;;41.60;26.55;;;16.60;99.90;;;;;;5050487;28;20115;-61
2022/08/19 04:23:35;;;;;;;40.88;26.52;;;16.60;99.90;;;;;;5050667;28;20033;-63
2022/08/19 04:26:01;;;;;;;40.20;26.50;;;16.60;99.90;;;;;;5051013;28;20118;-61
2022/08/19 04:28:27;;;;;;;36.58;25.63;;;16.70;99.90;;;;;;5050497;28;20495;-61
2022/08/19 04:30:54;;;;;;;43.17;25.83;;;16.70;99.90;;;;;;5050993;28;20405;-62
2022/08/19 04:33:23;;;;;;;41.38;27.35;;;16.60;99.90;;;;;;5050614;28;20429;-61
2022/08/19 04:35:51;;;;;;;44.17;27.48;;;16.60;99.90;;;;;;5050660;28;20039;-62
2022/08/19 04:38:20;;;;;;;41.28;27.38;;;16.60;99.90;;;;;;5054295;28;20087;-61
2022/08/19 04:43:37;;;;;;;40.40;27.38;;;16.50;99.90;;;;;;5054145;28;20451;-61
2022/08/19 04:46:11;;;;;;;41.60;27.30;;;16.50;99.90;;;;;;5054041;28;20493;-61
2022/08/19 04:48:38;;;;;;;42.40;27.75;;;16.50;99.90;;;;;;5054324;28;20033;-61
2022/08/19 04:51:08;;;;;;;39.92;27.10;;;16.50;99.90;;;;;;5053726;28;20130;-60
2022/08/19 04:53:35;;;;;;;40.63;27.15;;;16.50;99.90;;;;;;5053840;28;20398;-60
2022/08/19 04:56:10;;;;;;;36.80;26.83;;;16.50;99.90;;;;;;5053916;28;20044;-61
2022/08/19 04:58:37;;;;;;;41.03;26.17;;;16.60;99.90;;;;;;5053777;28;20045;-62
2022/08/19 05:01:04;;;;;;;35.20;24.92;;;16.50;99.90;;;;;;5053482;28;20025;-61
2022/08/19 05:03:33;;;;;;;34.80;24.42;;;16.50;99.90;;;;;;5053982;28;20025;-60
2022/08/19 05:06:07;;;;;;;41.70;25.20;;;16.40;99.90;;;;;;5053259;28;20021;-60
2022/08/19 05:08:35;;;;;;;36.50;23.45;;;16.40;99.90;;;;;;5053494;28;20029;-61
2022/08/19 05:11:01;;;;;;;36.00;23.33;;;16.50;99.90;;;;;;5053532;28;20436;-61
2022/08/19 05:13:27;;;;;;;33.28;22.30;;;16.50;99.90;;;;;;5053320;28;20025;-61
2022/08/19 05:15:57;;;;;;;31.40;21.98;;;16.50;99.90;;;;;;5053945;28;20136;-61
2022/08/19 05:23:54;;;;;;;31.95;19.80;;;16.80;99.90;;;;;;5053259;28;20044;-61
2022/08/19 05:26:19;;;;;;;31.95;19.95;;;16.80;99.90;;;;;;5052993;28;20021;-61
2022/08/19 05:28:45;;;;;;;33.28;20.33;;;16.80;99.90;;;;;;5053360;28;20032;-61
2022/08/19 05:31:11;;;;;;;29.65;19.25;;;16.90;99.90;;;;;;5052705;28;20499;-61
2022/08/19 05:33:37;;;;;;;29.20;19.50;;;17.00;99.90;;;;;;5052740;28;20025;-62
2022/08/19 05:36:04;;;;;;;28.58;19.33;;;17.00;99.90;;;;;;5052791;28;20027;-61
2022/08/19 05:38:29;;;;;;;29.42;19.75;;;17.20;99.90;;;;;;5051479;28;20585;-61
2022/08/19 05:40:55;;;;;;;28.13;19.02;;;17.10;99.90;;;;;;5052626;28;20115;-61
2022/08/19 05:43:21;;;;;;;30.02;19.77;;;17.20;99.90;;;;;;5052392;28;20055;-61
2022/08/19 05:45:47;;;;;;;29.50;19.42;;;17.10;99.90;;;;;;5050908;28;20032;-61
2022/08/19 05:48:13;;;;;;;27.52;19.23;;;17.10;99.90;;;;;;5052091;28;20029;-61
2022/08/19 05:50:41;;;;;;;27.77;18.98;;;17.20;99.90;;;;;;5052254;28;20436;-61
2022/08/19 05:53:08;;;;;;;30.98;19.50;;;17.10;99.90;;;;;;5050829;28;20021;-60
2022/08/19 05:55:34;;;;;;;31.67;18.67;;;17.20;99.90;;;;;;5052468;28;20104;-62
2022/08/19 05:58:01;;;;;;;26.45;18.73;;;17.20;99.90;;;;;;5052287;28;20494;-61
2022/08/19 06:00:27;;;;;;;32.65;18.95;;;17.20;99.90;;;;;;5051896;28;20041;-61
2022/08/19 06:02:54;;;;;;;29.95;18.40;;;17.30;99.90;;;;;;5050704;28;20032;-61
2022/08/19 06:05:19;;;;;;;24.08;17.00;;;17.40;99.90;;;;;;5051852;28;20021;-61
2022/08/19 06:07:45;;;;;;;25.02;16.17;;;17.60;99.90;;;;;;5052242;28;20108;-61
2022/08/19 06:10:11;;;;;;;29.65;17.77;;;17.70;99.90;;;;;;5052032;28;20021;-61
2022/08/19 06:12:37;;;;;;;24.10;16.42;;;17.90;99.90;;;;;;5051775;28;20037;-61
2022/08/19 06:15:09;;;;;;;25.17;16.58;;;18.00;99.90;;;;;;5052045;28;20441;-61
2022/08/19 06:17:35;;;;;;;22.25;15.88;;;18.10;99.90;;;;;;5051884;28;20538;-61
2022/08/19 06:20:13;;;;;;;25.48;15.63;;;18.20;99.90;;;;;;5051933;28;20158;-61
2022/08/19 06:22:40;;;;;;;21.77;14.52;;;18.30;99.90;;;;;;5051465;28;20037;-61
2022/08/19 06:25:06;;;;;;;22.40;15.27;;;18.30;99.90;;;;;;5051670;28;20032;-62
2022/08/19 06:27:33;;;;;;;22.98;16.60;;;18.50;99.90;;;;;;5051443;28;20029;-62
2022/08/19 06:29:59;;;;;;;22.45;16.75;;;18.50;99.90;;;;;;5051698;28;20017;-61
2022/08/19 06:32:24;;;;;;;21.55;17.08;;;18.50;99.90;;;;;;5051721;28;20036;-61
2022/08/19 06:34:50;;;;;;;28.00;17.20;;;18.40;99.90;;;;;;5050205;28;20036;-62
2022/08/19 06:37:16;;;;;;;23.90;16.45;;;18.60;99.90;;;;;;5051959;28;20598;-61
2022/08/19 06:39:43;;;;;;;20.98;15.15;;;18.70;99.90;;;;;;5051548;28;20394;-59
2022/08/19 06:42:11;;;;;;;20.40;15.00;;;18.80;99.90;;;;;;5049914;28;20544;-60
2022/08/19 06:44:40;;;;;;;22.77;15.38;;;19.00;99.90;;;;;;5051610;28;20025;-60
2022/08/19 06:47:08;;;;;;;21.17;13.65;;;19.10;99.90;;;;;;5050978;28;20021;-60
2022/08/19 06:49:35;;;;;;;20.08;13.48;;;19.10;99.90;;;;;;5051380;28;20096;-60
2022/08/19 06:52:01;;;;;;;20.55;12.85;;;19.10;99.90;;;;;;5051269;28;20444;-60
2022/08/19 06:54:30;;;;;;;16.70;12.13;;;19.10;99.90;;;;;;5051160;28;20062;-61
2022/08/19 06:57:01;;;;;;;22.02;12.98;;;19.30;99.90;;;;;;5051571;28;20276;-61
2022/08/19 06:59:28;;;;;;;16.20;12.20;;;19.40;99.90;;;;;;5050203;28;20141;-59
2022/08/19 07:01:56;;;;;;;19.55;13.10;;;19.30;99.90;;;;;;5051037;28;20131;-59
2022/08/19 07:04:27;;;;;;;19.33;11.88;;;19.40;99.90;;;;;;5051163;28;20029;-59
2022/08/19 07:07:05;;;;;;;16.83;12.15;;;19.40;99.90;;;;;;5050918;28;20037;-59
2022/08/19 07:09:31;;;;;;;18.98;11.57;;;19.60;99.90;;;;;;5051216;28;20090;-60
2022/08/19 07:11:57;;;;;;;16.55;11.65;;;19.60;99.90;;;;;;5050040;28;20479;-59
2022/08/19 07:14:26;;;;;;;15.10;11.40;;;19.60;99.90;;;;;;5042308;28;20024;-59
2022/08/19 07:16:54;;;;;;;17.40;12.30;;;19.70;99.90;;;;;;5048386;28;20521;-59
2022/08/19 07:19:22;;;;;;;17.15;11.80;;;19.70;99.90;;;;;;5048416;28;20470;-61
2022/08/19 07:21:53;;;;;;;19.20;12.35;;;19.70;99.90;;;;;;5047818;28;20501;-61
2022/08/19 07:24:23;;;;;;;18.17;11.88;;;19.70;99.90;;;;;;5048868;28;20032;-61
2022/08/19 07:26:50;;;;;;;18.15;11.77;;;19.80;99.90;;;;;;5049434;28;20440;-61
2022/08/19 07:29:17;;;;;;;19.83;11.18;;;19.80;99.90;;;;;;5049019;28;20462;-61
2022/08/19 07:31:43;;;;;;;19.27;11.00;;;19.90;99.90;;;;;;5049304;28;20106;-61
2022/08/19 07:34:11;;;;;;;18.20;11.50;;;20.10;99.90;;;;;;5048764;28;20059;-61
2022/08/19 07:36:40;;;;;;;14.40;10.90;;;20.00;99.90;;;;;;5049782;28;20037;-62
2022/08/19 07:39:10;;;;;;;20.80;11.85;;;19.90;99.90;;;;;;5049241;28;20371;-61
2022/08/19 07:41:37;;;;;;;16.52;11.32;;;19.80;99.90;;;;;;5049136;28;20060;-61
2022/08/19 07:44:04;;;;;;;17.77;11.63;;;19.90;99.90;;;;;;5048921;28;20449;-61
2022/08/19 07:46:32;;;;;;;19.92;11.93;;;20.00;99.90;;;;;;5048882;28;20032;-61
2022/08/19 07:49:00;;;;;;;18.70;11.50;;;20.00;99.90;;;;;;5049520;28;20428;-61
2022/08/19 07:51:26;;;;;;;23.60;11.82;;;19.90;99.90;;;;;;5049306;28;20111;-61
2022/08/19 07:53:52;;;;;;;18.30;11.48;;;19.90;99.90;;;;;;5049017;28;20032;-61
2022/08/19 07:56:22;;;;;;;17.50;11.30;;;19.90;99.90;;;;;;5049538;28;20037;-61
2022/08/19 07:58:51;;;;;;;18.65;11.43;;;20.10;99.90;;;;;;5048801;28;20049;-62
2022/08/19 08:01:23;;;;;;;18.98;12.27;;;20.20;99.90;;;;;;5049371;28;20628;-61
2022/08/19 08:09:23;;;;;;;19.50;12.07;;;20.40;99.90;;;;;;5049088;28;20409;-61
2022/08/19 08:11:52;;;;;;;18.95;12.27;;;20.10;99.90;;;;;;5052806;28;20060;-62
2022/08/19 08:14:31;;;;;;;17.40;12.73;;;20.00;99.90;;;;;;5052842;28;20029;-61
2022/08/19 08:16:57;;;;;;;19.75;13.35;;;19.90;99.90;;;;;;5042452;28;20116;-61
2022/08/19 08:19:24;;;;;;;22.25;13.40;;;19.90;99.90;;;;;;5046336;28;20482;-61
2022/08/19 08:21:51;;;;;;;18.17;13.05;;;20.10;99.90;;;;;;5052284;28;20060;-62
2022/08/19 08:24:17;;;;;;;23.02;13.35;;;20.10;99.90;;;;;;5045640;28;20029;-62
2022/08/19 08:26:46;;;;;;;20.20;12.40;;;20.20;99.90;;;;;;5052822;28;20024;-61
2022/08/19 08:29:12;;;;;;;18.15;12.50;;;20.30;99.90;;;;;;5041835;28;20017;-62
2022/08/19 08:31:39;;;;;;;19.05;12.73;;;20.30;99.90;;;;;;5039338;28;20039;-62
2022/08/19 08:34:05;;;;;;;18.60;12.65;;;20.50;99.90;;;;;;5033804;28;20040;-62
2022/08/19 08:36:33;;;;;;;20.40;11.98;;;20.70;99.90;;;;;;5035356;28;20030;-62
2022/08/19 08:38:59;;;;;;;17.50;12.05;;;20.70;99.90;;;;;;5047378;28;20083;-61
2022/08/19 08:41:52;;;;;;;16.83;11.85;;;20.80;99.90;;;;;;5042141;28;20540;-62
2022/08/19 08:44:41;;;;;;;19.35;11.68;;;21.00;99.90;;;;;;5052357;28;20025;-62
2022/08/19 08:47:13;;;;;;;17.92;11.38;;;20.90;99.90;;;;;;5033419;28;20037;-62
2022/08/19 08:49:41;;;;;;;18.77;11.35;;;21.10;99.90;;;;;;5034094;28;20027;-62
2022/08/19 08:52:15;;;;;;;16.45;11.65;;;21.30;99.90;;;;;;5052538;28;20041;-62
2022/08/19 08:54:45;;;;;;;14.43;10.52;;;21.30;99.90;;;;;;5047046;28;20026;-62
2022/08/19 08:57:17;;;;;;;17.88;11.13;;;21.40;99.90;;;;;;5051153;28;20086;-62
2022/08/19 08:59:50;;;;;;;18.15;10.80;;;21.20;99.90;;;;;;5048001;28;20116;-62
2022/08/19 09:02:17;;;;;;;15.27;10.77;;;21.10;99.90;;;;;;5051044;28;20033;-61
2022/08/19 09:04:42;;;;;;;16.58;10.60;;;21.00;99.90;;;;;;5045443;28;20382;-62
2022/08/19 09:07:20;;;;;;;13.77;10.02;;;21.10;99.90;;;;;;5040505;28;20034;-62
2022/08/19 09:09:49;;;;;;;17.20;11.13;;;21.00;99.90;;;;;;5051361;28;20028;-62
2022/08/19 09:12:31;;;;;;;15.27;10.00;;;21.00;99.90;;;;;;5050411;28;20119;-61
2022/08/19 09:15:01;;;;;;;15.40;10.63;;;21.20;99.90;;;;;;5045624;28;20120;-62
2022/08/19 09:17:30;;;;;;;13.25;10.40;;;21.10;99.90;;;;;;5032342;28;20064;-61
2022/08/19 09:20:04;;;;;;;14.20;10.50;;;21.00;99.90;;;;;;5049302;28;20486;-62
2022/08/19 09:22:30;;;;;;;15.00;8.98;;;20.90;99.90;;;;;;5048899;28;20140;-62
2022/08/19 09:24:56;;;;;;;11.60;8.38;;;20.90;99.90;;;;;;5046612;28;20513;-62
2022/08/19 09:27:25;;;;;;;10.07;8.25;;;20.90;99.90;;;;;;5053087;28;20040;-62
2022/08/19 09:29:53;;;;;;;10.48;8.13;;;21.00;99.90;;;;;;5051122;28;20021;-61
2022/08/19 09:32:20;;;;;;;8.15;7.15;;;21.20;99.90;;;;;;5051141;28;20041;-62
2022/08/19 09:34:46;;;;;;;9.73;6.70;;;21.10;99.90;;;;;;5051804;28;20394;-62
2022/08/19 09:37:12;;;;;;;9.40;6.63;;;21.10;99.90;;;;;;5053323;28;20029;-61
2022/08/19 09:39:40;;;;;;;7.95;6.63;;;21.00;99.90;;;;;;5042229;28;20040;-62
2022/08/19 09:42:11;;;;;;;10.65;6.45;;;21.00;99.90;;;;;;5042563;28;20025;-62
2022/08/19 09:44:41;;;;;;;9.82;7.20;;;20.90;99.90;;;;;;5050424;28;20094;-62
2022/08/19 09:47:08;;;;;;;10.98;6.95;;;20.70;99.90;;;;;;5047279;28;20025;-62
2022/08/19 09:49:33;;;;;;;11.70;7.05;;;20.70;99.90;;;;;;5049762;28;20116;-61
2022/08/19 09:51:59;;;;;;;10.43;7.53;;;20.80;99.90;;;;;;5050055;28;20588;-62
2022/08/19 09:54:26;;;;;;;12.25;7.30;;;20.80;99.90;;;;;;5051469;28;20028;-62
2022/08/19 09:56:55;;;;;;;15.02;8.00;;;20.90;99.90;;;;;;5048835;28;20033;-62
2022/08/19 09:59:21;;;;;;;11.50;7.90;;;21.00;99.90;;;;;;5050073;28;20107;-62
2022/08/19 10:01:47;;;;;;;10.75;7.32;;;21.00;99.90;;;;;;5045280;28;20033;-62
2022/08/19 10:04:12;;;;;;;9.65;7.70;;;20.80;99.90;;;;;;5039175;28;20461;-62
2022/08/19 10:06:39;;;;;;;13.32;8.10;;;20.70;99.90;;;;;;5043889;28;20032;-62
2022/08/19 10:09:07;;;;;;;9.43;7.55;;;20.80;99.90;;;;;;5044335;28;20070;-62
2022/08/19 10:11:34;;;;;;;10.43;7.10;;;20.90;99.90;;;;;;5049900;28;20485;-63
2022/08/19 10:14:01;;;;;;;10.35;6.70;;;21.00;99.90;;;;;;5049205;28;20053;-62
2022/08/19 10:16:27;;;;;;;7.63;6.10;;;21.30;99.90;;;;;;5046753;28;20040;-62
2022/08/19 10:18:53;;;;;;;7.63;5.93;;;21.60;99.90;;;;;;5040092;28;20033;-62
2022/08/19 10:21:20;;;;;;;11.23;6.50;;;21.80;99.90;;;;;;5045210;28;20079;-62
2022/08/19 10:23:49;;;;;;;10.60;6.45;;;21.80;99.90;;;;;;5051459;28;20143;-62
2022/08/19 10:26:19;;;;;;;8.05;6.30;;;21.80;99.90;;;;;;5047843;28;20112;-62
2022/08/19 10:28:45;;;;;;;13.30;6.40;;;22.10;99.90;;;;;;5041423;28;20037;-63
2022/08/19 10:31:14;;;;;;;10.68;6.50;;;22.20;99.90;;;;;;5031814;28;20033;-62
2022/08/19 10:33:40;;;;;;;7.85;6.10;;;22.20;99.90;;;;;;5041196;28;20397;-63
2022/08/19 10:36:19;;;;;;;14.63;6.45;;;22.30;99.90;;;;;;5040606;28;20413;-62
2022/08/19 10:38:47;;;;;;;8.48;6.07;;;22.30;99.90;;;;;;5051117;28;20029;-62
2022/08/19 10:41:15;;;;;;;10.27;6.90;;;22.20;99.90;;;;;;5039783;28;20360;-63
2022/08/19 10:43:42;;;;;;;11.00;7.13;;;22.20;99.90;;;;;;5031168;28;20378;-62
2022/08/19 10:46:10;;;;;;;10.10;6.68;;;22.10;99.90;;;;;;5031458;28;20535;-61
2022/08/19 10:48:37;;;;;;;8.90;5.78;;;22.30;99.90;;;;;;5031449;28;20030;-62
2022/08/19 10:53:47;;;;;;;8.80;6.18;;;22.20;99.90;;;;;;5047803;28;20521;-62
2022/08/19 10:58:57;;;;;;;11.18;6.68;;;22.60;99.90;;;;;;5032640;28;20134;-62
2022/08/19 11:01:25;;;;;;;7.20;6.18;;;22.90;99.90;;;;;;5036804;28;20268;-62
2022/08/19 11:03:51;;;;;;;9.18;7.28;;;23.20;99.90;;;;;;5031461;28;20108;-62
2022/08/19 11:06:19;;;;;;;7.38;6.50;;;23.40;99.90;;;;;;5031285;28;20261;-62
2022/08/19 11:08:45;;;;;;;9.77;7.28;;;23.40;99.90;;;;;;5039203;28;20052;-62
2022/08/19 11:11:11;;;;;;;9.93;7.28;;;23.40;99.90;;;;;;5039946;28;20449;-62
2022/08/19 11:13:40;;;;;;;10.55;8.73;;;23.40;99.90;;;;;;5040645;28;20037;-62
2022/08/19 11:16:13;;;;;;;10.10;8.40;;;23.20;99.90;;;;;;5038811;28;20072;-63
2022/08/19 11:18:43;;;;;;;13.38;10.20;;;23.20;99.90;;;;;;5031693;28;20021;-63
2022/08/19 11:21:12;;;;;;;12.48;9.35;;;23.30;99.90;;;;;;5046651;28;20072;-62
2022/08/19 11:23:39;;;;;;;9.60;8.75;;;23.20;99.90;;;;;;5040148;28;21200;-62
2022/08/19 11:26:05;;;;;;;11.70;9.90;;;22.90;99.90;;;;;;5046338;28;20037;-61
2022/08/19 11:28:31;;;;;;;11.85;10.10;;;22.70;99.90;;;;;;5038787;28;20022;-61
2022/08/19 11:30:56;;;;;;;11.85;10.07;;;22.70;99.90;;;;;;5040905;28;20082;-61
2022/08/19 11:33:22;;;;;;;13.77;9.63;;;23.00;99.90;;;;;;5030767;28;20025;-63
2022/08/19 11:35:49;;;;;;;10.30;9.30;;;23.30;99.90;;;;;;5033142;28;20492;-62
2022/08/19 11:38:14;;;;;;;11.35;9.13;;;23.10;99.90;;;;;;5041265;28;20037;-62
2022/08/19 11:40:41;;;;;;;12.80;8.82;;;23.10;99.90;;;;;;5034243;28;20036;-63
2022/08/19 11:43:08;;;;;;;9.55;8.27;;;23.00;99.90;;;;;;5037400;28;20119;-62
2022/08/19 11:45:34;;;;;;;7.97;7.28;;;23.00;99.90;;;;;;5037474;28;20144;-62
2022/08/19 11:47:59;;;;;;;8.43;7.13;;;23.20;99.90;;;;;;5050344;28;20441;-63
2022/08/19 11:50:25;;;;;;;7.78;6.97;;;23.30;99.90;;;;;;5053549;28;20064;-63
2022/08/19 11:52:54;;;;;;;8.82;6.35;;;23.20;99.90;;;;;;5045692;28;20028;-62
2022/08/19 11:55:20;;;;;;;10.57;6.65;;;23.20;99.90;;;;;;5053698;28;20091;-62
2022/08/19 11:57:46;;;;;;;8.70;5.85;;;23.10;99.90;;;;;;5050590;28;20033;-62
2022/08/19 12:00:13;;;;;;;7.32;6.55;;;23.40;99.90;;;;;;5052903;28;20051;-62
2022/08/19 12:02:39;;;;;;;6.28;5.78;;;23.50;99.90;;;;;;5049511;28;20119;-63
2022/08/19 12:05:05;;;;;;;7.85;6.15;;;23.70;99.90;;;;;;5042055;28;20119;-62
2022/08/19 12:07:32;;;;;;;7.55;5.88;;;23.90;99.90;;;;;;5051434;28;20032;-63
2022/08/19 12:09:59;;;;;;;5.90;5.28;;;24.00;99.90;;;;;;5043485;28;20510;-62
2022/08/19 12:12:26;;;;;;;6.40;5.72;;;23.80;99.90;;;;;;5048575;28;20043;-63
2022/08/19 12:14:56;;;;;;;10.52;5.53;;;23.90;99.90;;;;;;5042426;28;20389;-62
2022/08/19 12:17:23;;;;;;;6.80;5.40;;;24.10;99.90;;;;;;5049729;28;20548;-62
2022/08/19 12:19:49;;;;;;;5.50;5.00;;;24.10;99.90;;;;;;5045807;28;20021;-62
2022/08/19 12:22:14;;;;;;;5.93;5.30;;;24.00;99.90;;;;;;5046257;28;20393;-62
2022/08/19 12:24:40;;;;;;;7.95;5.80;;;23.90;99.90;;;;;;5050547;28;20029;-62
2022/08/19 12:27:06;;;;;;;6.50;5.97;;;23.80;99.90;;;;;;5049792;28;20045;-61
2022/08/19 12:29:32;;;;;;;6.68;6.00;;;23.40;99.90;;;;;;5050119;28;20071;-62
2022/08/19 12:32:00;;;;;;;5.28;4.88;;;23.40;99.90;;;;;;5045974;28;20116;-62
2022/08/19 12:34:29;;;;;;;7.60;4.28;;;23.70;99.90;;;;;;5047702;28;20078;-62
2022/08/19 12:36:58;;;;;;;5.10;3.97;;;24.10;99.90;;;;;;5047296;28;20060;-63
2022/08/19 12:39:25;;;;;;;5.47;3.70;;;24.50;99.90;;;;;;5049569;28;20036;-62
2022/08/19 12:41:51;;;;;;;4.03;3.47;;;24.60;99.90;;;;;;5039145;28;20025;-62
2022/08/19 12:44:17;;;;;;;5.78;4.15;;;24.30;99.90;;;;;;5048725;28;20074;-62
2022/08/19 12:46:42;;;;;;;4.20;3.83;;;24.00;99.90;;;;;;5050114;28;20024;-63
2022/08/19 12:49:08;;;;;;;4.60;4.18;;;24.20;99.90;;;;;;5047358;28;20029;-63
2022/08/19 12:51:34;;;;;;;4.55;3.50;;;23.80;99.90;;;;;;5043112;28;20045;-63
2022/08/19 12:54:01;;;;;;;6.10;3.72;;;23.70;99.90;;;;;;5041366;28;20035;-63